Time;durP1;ratioP1;P1;durP2;ratioP2;P2;SDS_P1;SDS_P2;PMS_P1;PMS_P2;Temp;Humidity;BMP_temperature;BMP_pressure;BME280_temperature;BME280_humidity;BME280_pressure;Samples;Min_cycle;Max_cycle;Signal;HPM_P1;HPM_P2
2023/06/13 00:00:09;;;;;;;0.40;0.40;;;;;;;17.21;46.18;96486.00;29395;232;63016;-52
2023/06/13 00:00:44;;;;;;;0.40;0.40;;;;;;;17.18;45.94;96486.69;29395;278;63004;-52
2023/06/13 00:01:15;;;;;;;0.40;0.40;;;;;;;17.18;46.42;96483.94;29395;291;63009;-52
2023/06/13 00:01:49;;;;;;;0.40;0.40;;;;;;;17.16;46.71;96497.19;29395;222;63004;-52
2023/06/13 00:02:20;;;;;;;0.40;0.40;;;;;;;17.15;47.22;96498.31;29395;203;63008;-52
2023/06/13 00:02:52;;;;;;;0.40;0.40;;;;;;;17.13;46.37;96495.13;29395;235;63004;-52
2023/06/13 00:03:23;;;;;;;0.40;0.40;;;;;;;17.11;46.29;96494.69;29395;229;63009;-52
2023/06/13 00:03:54;;;;;;;0.40;0.40;;;;;;;17.09;46.39;96499.69;29394;216;64009;-52
2023/06/13 00:04:26;;;;;;;0.40;0.40;;;;;;;17.06;46.53;96495.69;29395;306;63009;-52
2023/06/13 00:05:01;;;;;;;0.40;0.40;;;;;;;17.06;46.19;96489.41;29395;354;63005;-52
2023/06/13 00:05:32;;;;;;;0.40;0.40;;;;;;;17.04;46.90;96497.19;29395;222;63009;-52
2023/06/13 00:06:03;;;;;;;0.40;0.40;;;;;;;17.02;47.32;96494.00;29395;280;63005;-52
2023/06/13 00:06:37;;;;;;;0.40;0.40;;;;;;;17.00;47.05;96499.00;29395;310;63009;-52
2023/06/13 00:07:09;;;;;;;0.40;0.40;;;;;;;16.97;47.40;96499.72;29395;211;63005;-52
2023/06/13 00:07:40;;;;;;;0.40;0.40;;;;;;;16.96;47.10;96492.66;29395;321;63009;-52
2023/06/13 00:08:21;;;;;;;0.40;0.40;;;;;;;16.95;46.66;96493.78;29395;254;63016;-62
2023/06/13 00:08:52;;;;;;;0.40;0.40;;;;;;;16.92;47.76;96494.47;29417;328;63004;-51
2023/06/13 00:09:24;;;;;;;0.40;0.40;;;;;;;16.91;46.54;96492.88;29394;203;64009;-52
2023/06/13 00:09:56;;;;;;;0.40;0.40;;;;;;;16.92;46.38;96491.72;29395;198;63008;-52
2023/06/13 00:10:27;;;;;;;0.40;0.40;;;;;;;16.92;46.34;96489.78;29395;257;63004;-52
2023/06/13 00:10:58;;;;;;;0.40;0.40;;;;;;;16.93;46.62;96487.84;29395;223;63009;-52
2023/06/13 00:11:30;;;;;;;0.95;0.95;;;;;;;16.96;45.94;96495.37;29395;217;63011;-50
2023/06/13 00:12:03;;;;;;;0.50;0.50;;;;;;;16.96;46.24;96489.91;29395;239;63009;-50
2023/06/13 00:12:37;;;;;;;0.40;0.40;;;;;;;16.97;45.80;96491.50;29395;292;63005;-52
2023/06/13 00:13:08;;;;;;;0.40;0.40;;;;;;;16.96;46.63;96492.66;29395;207;63017;-51
2023/06/13 00:13:40;;;;;;;0.40;0.40;;;;;;;16.92;45.83;96484.31;29395;206;63005;-62
2023/06/13 00:14:12;;;;;;;0.40;0.40;;;;;;;16.92;46.33;96484.31;29395;213;63009;-52
2023/06/13 00:14:44;;;;;;;0.40;0.40;;;;;;;16.94;45.84;96486.72;29394;289;64009;-52
2023/06/13 00:15:16;;;;;;;0.40;0.40;;;;;;;16.96;45.68;96484.44;29395;223;63009;-52
2023/06/13 00:15:51;;;;;;;0.40;0.40;;;;;;;16.97;45.49;96486.81;29395;265;63004;-51
2023/06/13 00:16:25;;;;;;;0.40;0.40;;;;;;;16.97;46.42;96486.03;29395;226;63009;-52
2023/06/13 00:16:57;;;;;;;0.40;0.40;;;;;;;16.97;46.02;96488.75;29395;202;63004;-52
2023/06/13 00:17:31;;;;;;;0.40;0.40;;;;;;;16.94;46.65;96481.22;29395;203;63008;-52
2023/06/13 00:18:03;;;;;;;0.40;0.40;;;;;;;16.94;46.92;96492.19;29395;203;63004;-52
2023/06/13 00:18:37;;;;;;;0.40;0.40;;;;;;;16.91;47.09;96490.94;29395;216;63009;-52
2023/06/13 00:19:11;;;;;;;0.40;0.40;;;;;;;16.90;46.32;96492.06;29395;227;63005;-52
2023/06/13 00:19:43;;;;;;;0.40;0.40;;;;;;;16.89;46.44;96484.19;29395;271;63009;-52
2023/06/13 00:20:15;;;;;;;0.40;0.40;;;;;;;16.88;46.89;96482.59;29394;293;63997;-50
2023/06/13 00:20:47;;;;;;;0.40;0.40;;;;;;;16.86;46.19;96482.94;29395;220;63009;-52
2023/06/13 00:21:18;;;;;;;0.40;0.40;;;;;;;16.86;47.30;96484.88;29395;284;63005;-52
2023/06/13 00:21:50;;;;;;;0.40;0.40;;;;;;;16.84;47.33;96487.16;29395;237;63009;-52
2023/06/13 00:22:24;;;;;;;0.40;0.40;;;;;;;16.83;46.92;96489.09;29395;264;63005;-52
2023/06/13 00:22:56;;;;;;;0.40;0.40;;;;;;;16.83;47.15;96491.84;29395;229;63009;-61
2023/06/13 00:23:27;;;;;;;0.40;0.40;;;;;;;16.81;47.39;96485.09;29395;239;63004;-53
2023/06/13 00:23:58;;;;;;;0.40;0.40;;;;;;;16.81;47.09;96485.09;29395;213;63009;-51
2023/06/13 00:24:29;;;;;;;0.40;0.40;;;;;;;16.79;46.92;96487.37;29395;347;63004;-52
2023/06/13 00:25:02;;;;;;;0.50;0.50;;;;;;;16.75;47.14;96493.53;29395;202;63008;-52
2023/06/13 00:25:33;;;;;;;0.40;0.40;;;;;;;16.73;47.60;96493.09;29394;254;64008;-52
2023/06/13 00:26:04;;;;;;;0.40;0.40;;;;;;;16.73;47.23;96487.59;29395;226;63009;-52
2023/06/13 00:26:35;;;;;;;0.40;0.40;;;;;;;16.72;47.31;96486.00;29395;224;63009;-52
2023/06/13 00:27:07;;;;;;;0.40;0.40;;;;;;;16.72;48.04;96486.00;29395;202;63009;-51
2023/06/13 00:27:38;;;;;;;0.40;0.40;;;;;;;16.72;47.15;96483.28;29395;320;63005;-62
2023/06/13 00:28:10;;;;;;;0.40;0.40;;;;;;;16.73;46.40;96482.13;29395;202;63009;-52
2023/06/13 00:28:41;;;;;;;0.40;0.40;;;;;;;16.76;45.52;96483.38;29395;213;63005;-52
2023/06/13 00:29:12;;;;;;;0.40;0.40;;;;;;;16.80;45.30;96478.03;29395;199;63009;-52
2023/06/13 00:29:44;;;;;;;0.40;0.40;;;;;;;16.81;45.79;96479.63;29395;312;63005;-52
2023/06/13 00:30:15;;;;;;;0.40;0.40;;;;;;;16.81;46.62;96482.38;29395;287;63009;-52
2023/06/13 00:30:47;;;;;;;0.40;0.40;;;;;;;16.80;45.82;96478.03;29394;223;64009;-51
2023/06/13 00:31:19;;;;;;;0.40;0.40;;;;;;;16.81;45.71;96477.69;29395;255;63009;-53
2023/06/13 00:31:50;;;;;;;0.40;0.40;;;;;;;16.83;45.95;96480.09;29396;202;63004;-52
2023/06/13 00:32:22;;;;;;;0.40;0.40;;;;;;;16.83;45.59;96480.09;29396;285;63009;-51
2023/06/13 00:32:56;;;;;;;0.40;0.40;;;;;;;16.85;45.55;96477.81;29396;328;63004;-51
2023/06/13 00:33:31;;;;;;;0.40;0.40;;;;;;;16.87;46.03;96486.47;29396;302;63009;-52
2023/06/13 00:34:02;;;;;;;0.40;0.40;;;;;;;16.87;45.93;96481.00;29395;198;64009;-52
2023/06/13 00:34:33;;;;;;;0.40;0.40;;;;;;;16.86;45.86;96473.91;29396;198;63009;-52
2023/06/13 00:35:08;;;;;;;0.40;0.40;;;;;;;16.86;45.79;96485.69;29396;204;63005;-53
2023/06/13 00:35:39;;;;;;;0.40;0.40;;;;;;;16.88;45.60;96477.13;29396;332;63009;-53
2023/06/13 00:36:16;;;;;;;0.40;0.40;;;;;;;16.88;45.43;96483.41;29396;260;63000;-51
2023/06/13 00:36:47;;;;;;;0.40;0.40;;;;;;;16.89;45.03;96474.03;29396;222;63009;-52
2023/06/13 00:37:18;;;;;;;0.40;0.40;;;;;;;16.90;45.06;96477.56;29396;227;63005;-52
2023/06/13 00:37:51;;;;;;;0.40;0.40;;;;;;;16.89;45.44;96479.50;29396;202;63009;-51
2023/06/13 00:38:23;;;;;;;0.40;0.40;;;;;;;16.88;45.28;96466.94;29396;209;63004;-62
2023/06/13 00:38:58;;;;;;;0.50;0.50;;;;;;;16.89;46.04;96479.50;29396;213;63009;-61
2023/06/13 00:39:30;;;;;;;0.40;0.40;;;;;;;16.88;46.21;96480.66;29395;289;64009;-52
2023/06/13 00:40:02;;;;;;;0.40;0.40;;;;;;;16.87;46.72;96483.75;29396;202;63009;-61
2023/06/13 00:40:34;;;;;;;0.40;0.40;;;;;;;16.87;45.86;96472.78;29396;227;63004;-50
2023/06/13 00:41:05;;;;;;;0.40;0.40;;;;;;;16.87;45.77;96473.56;29396;208;63018;-51
2023/06/13 00:41:36;;;;;;;0.40;0.40;;;;;;;16.87;46.16;96481.78;29396;207;63005;-51
2023/06/13 00:42:08;;;;;;;0.50;0.50;;;;;;;16.88;46.22;96474.38;29396;226;63019;-52
2023/06/13 00:42:39;;;;;;;0.43;0.43;;;;;;;16.87;46.06;96481.00;29396;210;63005;-51
2023/06/13 00:43:11;;;;;;;0.40;0.40;;;;;;;16.86;45.93;96469.25;29396;253;63009;-49
2023/06/13 00:43:43;;;;;;;0.50;0.50;;;;;;;16.86;45.70;96477.47;29396;267;63000;-52
2023/06/13 00:44:15;;;;;;;0.40;0.40;;;;;;;16.85;45.38;96473.13;29395;312;64013;-52
2023/06/13 00:44:46;;;;;;;0.40;0.40;;;;;;;16.85;44.60;96466.84;29396;295;63004;-52
2023/06/13 00:45:23;;;;;;;0.40;0.40;;;;;;;16.84;45.79;96468.78;29396;216;63009;-52
2023/06/13 00:45:55;;;;;;;0.40;0.40;;;;;;;16.82;45.96;96473.00;29396;321;63004;-61
2023/06/13 00:46:32;;;;;;;0.40;0.40;;;;;;;16.79;45.84;96474.47;29396;314;63009;-52
2023/06/13 00:47:05;;;;;;;0.40;0.40;;;;;;;16.77;45.57;96470.50;29396;298;63004;-51
2023/06/13 00:47:37;;;;;;;0.40;0.40;;;;;;;16.75;45.65;96471.63;29396;234;63008;-52
2023/06/13 00:48:10;;;;;;;0.40;0.40;;;;;;;16.75;45.82;96477.09;29396;258;63004;-61
2023/06/13 00:48:43;;;;;;;0.40;0.40;;;;;;;16.73;46.16;96471.16;29396;221;63009;-52
2023/06/13 00:49:15;;;;;;;0.50;0.50;;;;;;;16.74;46.05;96471.97;29395;320;64009;-52
2023/06/13 00:49:47;;;;;;;0.45;0.45;;;;;;;16.75;45.71;96471.63;29395;210;64013;-52
2023/06/13 00:50:28;;;;;;;0.40;0.40;;;;;;;16.75;45.80;96468.88;29396;209;63005;-52
2023/06/13 00:51:01;;;;;;;0.40;0.40;;;;;;;16.74;46.25;96467.28;29440;197;63015;-51
2023/06/13 00:51:36;;;;;;;0.40;0.40;;;;;;;16.74;45.89;96472.78;29396;240;63005;-51
2023/06/13 00:52:11;;;;;;;0.47;0.47;;;;;;;16.73;45.99;96471.16;29396;336;63009;-51
2023/06/13 00:52:43;;;;;;;0.40;0.40;;;;;;;16.73;46.80;96471.16;29396;226;63004;-52
2023/06/13 00:53:18;;;;;;;0.40;0.40;;;;;;;16.77;45.85;96473.22;29396;324;63009;-62
2023/06/13 00:53:51;;;;;;;0.40;0.40;;;;;;;16.81;45.31;96465.94;29395;229;64009;-52
2023/06/13 00:54:23;;;;;;;0.40;0.40;;;;;;;16.82;45.09;96467.53;29396;257;63008;-51
2023/06/13 00:54:54;;;;;;;0.40;0.40;;;;;;;16.81;45.03;96472.19;29396;230;63004;-62
2023/06/13 00:55:27;;;;;;;0.40;0.40;;;;;;;16.79;45.75;96469.00;29396;247;63009;-52
2023/06/13 00:55:59;;;;;;;0.47;0.47;;;;;;;16.77;45.82;96465.00;29396;202;63005;-52
2023/06/13 00:56:31;;;;;;;0.40;0.40;;;;;;;16.75;45.69;96468.09;29395;222;64014;-52
2023/06/13 00:57:03;;;;;;;0.40;0.40;;;;;;;16.75;45.83;96468.09;29396;212;63005;-52
2023/06/13 00:57:38;;;;;;;0.45;0.45;;;;;;;16.74;45.96;96472.78;29396;223;63017;-52
2023/06/13 00:58:11;;;;;;;0.40;0.40;;;;;;;16.72;47.07;96474.25;29396;202;63010;-52
2023/06/13 00:58:43;;;;;;;0.40;0.40;;;;;;;16.69;46.79;96469.44;29396;315;63014;-52
2023/06/13 00:59:15;;;;;;;0.40;0.40;;;;;;;16.65;47.38;96480.28;29396;279;63005;-52
2023/06/13 00:59:46;;;;;;;0.40;0.40;;;;;;;16.63;47.08;96471.59;29396;237;63009;-52
2023/06/13 01:00:20;;;;;;;0.50;0.50;;;;;;;16.62;47.06;96470.00;29395;204;64009;-52
2023/06/13 01:00:53;;;;;;;0.40;0.40;;;;;;;16.61;47.04;96473.91;29396;218;63018;-53
2023/06/13 01:01:27;;;;;;;0.50;0.50;;;;;;;16.60;47.23;96475.03;29396;337;63004;-62
2023/06/13 01:01:59;;;;;;;0.40;0.40;;;;;;;16.60;48.31;96476.97;29396;221;63008;-52
2023/06/13 01:02:33;;;;;;;0.50;0.50;;;;;;;16.59;48.32;96480.84;29395;260;64008;-52
2023/06/13 01:03:10;;;;;;;0.45;0.45;;;;;;;16.57;47.88;96474.91;29395;222;64014;-52
2023/06/13 01:03:45;;;;;;;0.40;0.40;;;;;;;16.56;47.97;96481.53;29396;218;63010;-51
2023/06/13 01:04:19;;;;;;;0.40;0.40;;;;;;;16.51;47.26;96477.06;29396;260;63005;-52
2023/06/13 01:04:53;;;;;;;0.40;0.40;;;;;;;16.50;47.31;96478.22;29396;227;63009;-51
2023/06/13 01:05:27;;;;;;;0.40;0.40;;;;;;;16.51;46.36;96477.06;29395;292;64013;-52
2023/06/13 01:06:00;;;;;;;0.40;0.40;;;;;;;16.52;46.56;96472.41;29395;235;64009;-52
2023/06/13 01:06:33;;;;;;;0.50;0.50;;;;;;;16.53;46.45;96466.56;29396;198;63009;-52
2023/06/13 01:07:10;;;;;;;0.50;0.50;;;;;;;16.53;47.03;96468.53;29396;314;63010;-52
2023/06/13 01:07:45;;;;;;;0.40;0.40;;;;;;;16.53;47.07;96474.78;29396;197;63009;-52
2023/06/13 01:08:21;;;;;;;0.50;0.50;;;;;;;16.49;47.45;96473.88;29396;219;63000;-52
2023/06/13 01:08:58;;;;;;;0.50;0.50;;;;;;;16.48;47.28;96474.22;29395;240;64013;-52
2023/06/13 01:09:29;;;;;;;0.50;0.50;;;;;;;16.47;47.30;96473.41;29395;250;64008;-52
2023/06/13 01:10:01;;;;;;;0.50;0.50;;;;;;;16.47;47.03;96462.47;29395;236;64013;-53
2023/06/13 01:10:33;;;;;;;0.40;0.40;;;;;;;16.45;46.74;96470.22;29395;219;64009;-52
2023/06/13 01:11:13;;;;;;;0.50;0.50;;;;;;;16.43;46.67;96464.28;29396;200;63016;-52
2023/06/13 01:12:18;;;;;;;0.50;0.50;;;;;;;16.44;46.27;96468.62;29396;228;63005;-62
2023/06/13 01:13:00;;;;;;;0.40;0.40;;;;;;;16.49;46.50;96464.84;29396;238;63009;-51
2023/06/13 01:13:47;;;;;;;0.47;0.47;;;;;;;16.52;46.33;96464.19;29396;206;63005;-51
2023/06/13 01:14:49;;;;;;;0.50;0.50;;;;;;;16.55;46.39;96463.50;29396;268;63009;-52
2023/06/13 01:15:22;;;;;;;0.47;0.47;;;;;;;16.56;45.91;96460.41;29419;222;63004;-52
2023/06/13 01:16:26;;;;;;;0.40;0.40;;;;;;;16.56;45.65;96454.94;29396;252;64013;-64
2023/06/13 01:17:03;;;;;;;;;;;;;;;16.58;45.72;96457.34;29997;983;6000;-52
2023/06/13 01:18:00;;;;;;;0.40;0.40;;;;;;;16.60;45.51;96444.91;29401;198;63000;-52
2023/06/13 01:18:38;;;;;;;0.40;0.40;;;;;;;16.65;45.29;96452.91;29397;206;63009;-62
2023/06/13 01:19:40;;;;;;;0.40;0.40;;;;;;;16.66;45.44;96454.50;29397;221;63005;-52
2023/06/13 01:20:16;;;;;;;0.43;0.43;;;;;;;16.65;45.26;96443.88;29419;199;63009;-52
2023/06/13 01:20:48;;;;;;;0.40;0.40;;;;;;;16.61;46.08;96451.97;29396;211;64009;-53
2023/06/13 01:21:24;;;;;;;0.40;0.40;;;;;;;16.62;45.73;96450.03;29397;207;63009;-52
2023/06/13 01:21:57;;;;;;;0.50;0.50;;;;;;;16.61;45.65;96451.97;29397;198;63005;-52
2023/06/13 01:22:56;;;;;;;0.40;0.40;;;;;;;16.61;45.45;96451.19;29397;203;63009;-52
2023/06/13 01:23:44;;;;;;;0.40;0.40;;;;;;;16.63;45.75;96455.16;29397;218;63004;-52
2023/06/13 01:24:52;;;;;;;0.40;0.40;;;;;;;16.68;45.41;96457.69;29397;228;63009;-62
2023/06/13 01:26:06;;;;;;;0.50;0.50;;;;;;;16.71;45.63;96450.72;29397;211;63010;-52
2023/06/13 01:26:48;;;;;;;0.50;0.50;;;;;;;16.70;45.37;96454.63;29396;361;64014;-52
2023/06/13 01:27:22;;;;;;;0.40;0.40;;;;;;;16.67;45.35;96447.88;29397;268;63005;-52
2023/06/13 01:27:55;;;;;;;0.50;0.50;;;;;;;16.63;45.60;96446.94;29397;214;63017;-52
2023/06/13 01:28:32;;;;;;;0.50;0.50;;;;;;;16.63;45.61;96454.38;29396;244;63005;-52
2023/06/13 01:29:05;;;;;;;0.40;0.40;;;;;;;16.60;45.61;96447.66;29396;226;63013;-50
2023/06/13 01:29:38;;;;;;;0.40;0.40;;;;;;;16.61;45.54;96446.50;29396;244;63004;-52
2023/06/13 01:30:10;;;;;;;0.40;0.40;;;;;;;16.61;45.59;96451.97;29395;214;64013;-52
2023/06/13 01:30:43;;;;;;;0.40;0.40;;;;;;;16.60;46.06;96444.91;29397;243;63004;-52
2023/06/13 01:31:17;;;;;;;0.40;0.40;;;;;;;16.58;45.65;96441.72;29396;245;63009;-52
2023/06/13 01:31:55;;;;;;;0.40;0.40;;;;;;;16.57;45.49;96445.59;29395;205;64009;-50
2023/06/13 01:32:29;;;;;;;0.40;0.40;;;;;;;16.64;45.79;96451.31;29395;202;64013;-62
2023/06/13 01:33:02;;;;;;;0.40;0.40;;;;;;;16.63;45.76;96444.19;29396;206;63005;-52
2023/06/13 01:33:35;;;;;;;0.40;0.40;;;;;;;16.61;45.43;96445.72;29396;249;63017;-62
2023/06/13 01:34:07;;;;;;;0.40;0.40;;;;;;;16.59;45.45;96447.97;29396;238;63005;-61
2023/06/13 01:34:40;;;;;;;0.40;0.40;;;;;;;16.57;45.69;96447.53;29396;265;63009;-63
2023/06/13 01:35:15;;;;;;;0.40;0.40;;;;;;;16.53;46.39;96450.16;29395;221;64009;-52
2023/06/13 01:35:47;;;;;;;0.40;0.40;;;;;;;16.48;46.56;96444.88;29396;228;63009;-52
2023/06/13 01:36:20;;;;;;;0.50;0.50;;;;;;;16.45;46.93;96448.31;29395;270;64009;-52
2023/06/13 01:36:52;;;;;;;0.50;0.50;;;;;;;16.43;46.40;96445.12;29396;203;63009;-51
2023/06/13 01:37:23;;;;;;;0.40;0.40;;;;;;;16.48;46.57;96447.63;29396;251;63004;-52
2023/06/13 01:37:58;;;;;;;0.40;0.40;;;;;;;16.49;46.14;96440.22;29396;356;63009;-65
2023/06/13 01:38:30;;;;;;;0.40;0.40;;;;;;;16.50;46.63;96439.88;29396;209;63004;-52
2023/06/13 01:39:02;;;;;;;0.40;0.40;;;;;;;16.49;46.08;96443.75;29396;251;63009;-63
2023/06/13 01:39:35;;;;;;;0.40;0.40;;;;;;;16.49;46.11;96442.94;29396;244;63004;-52
2023/06/13 01:40:10;;;;;;;0.40;0.40;;;;;;;16.49;46.20;96448.44;29396;266;63008;-52
2023/06/13 01:40:41;;;;;;;0.45;0.45;;;;;;;16.46;46.15;96444.44;29396;197;63005;-61
2023/06/13 01:41:12;;;;;;;0.40;0.40;;;;;;;16.45;46.63;96448.31;29396;210;63026;-52
2023/06/13 01:41:43;;;;;;;0.40;0.40;;;;;;;16.41;47.22;96447.38;29395;202;64009;-62
2023/06/13 01:42:15;;;;;;;0.40;0.40;;;;;;;16.39;46.67;96444.19;29395;197;64013;-52
2023/06/13 01:42:46;;;;;;;0.40;0.40;;;;;;;16.39;46.68;96444.19;29396;199;63005;-62
2023/06/13 01:43:17;;;;;;;0.40;0.40;;;;;;;16.39;46.37;96438.72;29396;212;63009;-63
2023/06/13 01:43:49;;;;;;;0.40;0.40;;;;;;;16.37;47.31;96444.53;29396;199;63005;-62
2023/06/13 01:44:21;;;;;;;0.40;0.40;;;;;;;16.34;46.56;96439.72;29396;224;63009;-52
2023/06/13 01:44:52;;;;;;;0.40;0.40;;;;;;;16.30;47.72;96447.03;29396;197;63004;-51
2023/06/13 01:45:25;;;;;;;0.40;0.40;;;;;;;16.30;47.99;96440.75;29396;227;63009;-51
2023/06/13 01:46:40;;;;;;;0.40;0.40;;;;;;;16.28;47.55;96443.84;29396;250;63004;-52
2023/06/13 01:47:55;;;;;;;0.50;0.50;;;;;;;16.28;47.18;96437.59;29395;205;64013;-64
2023/06/13 01:49:24;;;;;;;0.50;0.50;;;;;;;16.29;46.82;96436.41;29396;203;63005;-61
2023/06/13 01:50:45;;;;;;;0.40;0.40;;;;;;;16.30;46.66;96446.22;29396;308;63009;-52
2023/06/13 01:51:27;;;;;;;0.50;0.50;;;;;;;16.31;46.77;96439.63;29395;240;64009;-52
2023/06/13 01:52:30;;;;;;;0.40;0.40;;;;;;;16.31;46.83;96442.34;29396;224;63017;-52
2023/06/13 01:53:05;;;;;;;0.40;0.40;;;;;;;16.30;46.41;96440.75;29395;237;64009;-52
2023/06/13 01:53:54;;;;;;;0.40;0.40;;;;;;;16.29;46.65;96444.63;29396;240;63009;-62
2023/06/13 01:54:28;;;;;;;0.40;0.40;;;;;;;16.29;47.02;96439.16;29396;223;63011;-52
2023/06/13 01:55:05;;;;;;;0.40;0.40;;;;;;;16.27;46.64;96435.97;29396;260;63008;-51
2023/06/13 01:55:42;;;;;;;0.50;0.50;;;;;;;16.27;46.83;96435.97;29395;204;64009;-52
2023/06/13 01:56:19;;;;;;;0.40;0.40;;;;;;;16.24;46.85;96432.00;29396;276;63009;-52
2023/06/13 01:56:56;;;;;;;0.50;0.50;;;;;;;16.24;47.21;96429.25;29396;219;63000;-51
2023/06/13 01:57:36;;;;;;;0.40;0.40;;;;;;;16.22;47.02;96433.47;29396;226;63019;-52
2023/06/13 01:58:16;;;;;;;0.40;0.40;;;;;;;16.18;47.40;96427.88;29396;265;63006;-52
2023/06/13 01:58:59;;;;;;;0.43;0.43;;;;;;;16.14;47.78;96439.81;29396;221;63009;-63
2023/06/13 01:59:33;;;;;;;0.40;0.40;;;;;;;16.12;48.65;96439.38;29397;222;63004;-62
2023/06/13 02:00:06;;;;;;;0.40;0.40;;;;;;;16.08;47.59;96440.03;29396;203;63017;-52
2023/06/13 02:00:42;;;;;;;0.50;0.50;;;;;;;16.07;47.68;96435.72;29395;230;64009;-52
2023/06/13 02:01:14;;;;;;;0.50;0.50;;;;;;;16.07;48.01;96432.97;29396;264;63009;-52
2023/06/13 02:01:47;;;;;;;0.62;0.62;;;;;;;16.09;47.70;96436.16;29396;204;63004;-52
2023/06/13 02:02:20;;;;;;;0.40;0.40;;;;;;;16.17;47.51;96428.22;29396;296;63009;-52
2023/06/13 02:02:53;;;;;;;0.40;0.40;;;;;;;16.20;47.46;96428.31;29396;215;63005;-51
2023/06/13 02:03:25;;;;;;;0.40;0.40;;;;;;;16.19;47.00;96429.47;29396;332;63009;-51
2023/06/13 02:04:03;;;;;;;0.40;0.40;;;;;;;16.19;47.29;96425.94;29396;267;63000;-62
2023/06/13 02:04:43;;;;;;;0.40;0.40;;;;;;;16.16;47.77;96432.09;29396;241;63009;-63
2023/06/13 02:05:14;;;;;;;0.40;0.40;;;;;;;16.15;47.64;96438.69;29396;248;63009;-51
2023/06/13 02:05:48;;;;;;;0.40;0.40;;;;;;;16.15;47.60;96433.22;29395;257;64013;-51
2023/06/13 02:06:19;;;;;;;0.40;0.40;;;;;;;16.16;47.46;96434.81;29396;228;63005;-63
2023/06/13 02:06:50;;;;;;;0.40;0.40;;;;;;;16.16;47.48;96432.09;29396;216;63009;-50
2023/06/13 02:07:22;;;;;;;0.40;0.40;;;;;;;16.15;47.83;96433.22;29396;307;63004;-51
2023/06/13 02:07:56;;;;;;;0.50;0.50;;;;;;;16.12;47.87;96439.38;29396;223;63014;-63
2023/06/13 02:08:28;;;;;;;0.40;0.40;;;;;;;16.09;47.55;96429.91;29396;218;63004;-61
2023/06/13 02:09:01;;;;;;;0.40;0.40;;;;;;;16.08;47.37;96434.56;29396;215;63009;-51
2023/06/13 02:09:33;;;;;;;0.50;0.50;;;;;;;16.09;47.58;96432.63;29396;218;63004;-66
2023/06/13 02:10:05;;;;;;;0.47;0.47;;;;;;;16.12;47.15;96428.41;29396;214;63009;-62
2023/06/13 02:10:38;;;;;;;0.43;0.43;;;;;;;16.13;47.92;96430.03;29396;203;63005;-64
2023/06/13 02:11:09;;;;;;;0.40;0.40;;;;;;;16.09;47.33;96427.97;29395;197;64014;-51
2023/06/13 02:11:41;;;;;;;0.43;0.43;;;;;;;16.08;47.48;96429.09;29396;234;63005;-52
2023/06/13 02:12:13;;;;;;;0.40;0.40;;;;;;;16.10;47.35;96431.50;29396;248;63009;-52
2023/06/13 02:12:47;;;;;;;0.50;0.50;;;;;;;16.11;47.43;96432.28;29396;228;63005;-52
2023/06/13 02:13:18;;;;;;;0.50;0.50;;;;;;;16.09;47.32;96425.22;29396;270;63009;-63
2023/06/13 02:13:50;;;;;;;0.40;0.40;;;;;;;16.08;48.13;96429.09;29396;214;63005;-52
2023/06/13 02:14:23;;;;;;;0.43;0.43;;;;;;;16.06;47.99;96425.09;29396;250;63009;-68
2023/06/13 02:14:56;;;;;;;0.40;0.40;;;;;;;16.05;48.00;96432.50;29395;284;64009;-51
2023/06/13 02:15:27;;;;;;;0.50;0.50;;;;;;;16.06;47.46;96425.91;29396;247;63016;-63
2023/06/13 02:15:59;;;;;;;0.40;0.40;;;;;;;16.08;47.66;96429.09;29396;285;63004;-52
2023/06/13 02:16:30;;;;;;;0.40;0.40;;;;;;;16.08;47.35;96428.28;29396;211;63009;-65
2023/06/13 02:17:05;;;;;;;0.40;0.40;;;;;;;16.07;47.58;96427.50;29396;215;63004;-50
2023/06/13 02:17:37;;;;;;;0.40;0.40;;;;;;;16.09;47.78;96432.63;29396;239;63014;-65
2023/06/13 02:18:09;;;;;;;0.43;0.43;;;;;;;16.05;47.56;96432.50;29397;230;63005;-52
2023/06/13 02:18:46;;;;;;;0.50;0.50;;;;;;;16.03;47.78;96431.25;29395;214;64014;-52
2023/06/13 02:19:18;;;;;;;0.40;0.40;;;;;;;16.02;47.68;96424.97;29397;235;63005;-64
2023/06/13 02:19:50;;;;;;;0.40;0.40;;;;;;;16.03;47.55;96431.25;29397;221;63009;-51
2023/06/13 02:20:22;;;;;;;0.40;0.40;;;;;;;16.04;47.87;96424.63;29397;235;63005;-68
2023/06/13 02:20:53;;;;;;;0.40;0.40;;;;;;;16.07;47.37;96432.97;29397;263;63019;-62
2023/06/13 02:21:24;;;;;;;0.40;0.40;;;;;;;16.11;47.49;96430.34;29397;216;63009;-53
2023/06/13 02:21:56;;;;;;;0.40;0.40;;;;;;;16.10;47.59;96426.03;29395;202;63009;-63
2023/06/13 02:22:30;;;;;;;1.00;1.00;;;;;;;16.08;47.79;96428.28;29395;240;63004;-52
2023/06/13 02:23:02;;;;;;;0.40;0.40;;;;;;;16.05;47.84;96426.22;29394;202;64013;-66
2023/06/13 02:23:34;;;;;;;0.50;0.50;;;;;;;16.00;48.38;96432.72;29395;213;63004;-63
2023/06/13 02:24:06;;;;;;;0.40;0.40;;;;;;;15.98;48.00;96435.00;29395;257;63020;-65
2023/06/13 02:24:37;;;;;;;0.40;0.40;;;;;;;15.96;48.08;96437.28;29395;211;63004;-63
2023/06/13 02:25:09;;;;;;;0.40;0.40;;;;;;;15.95;48.01;96435.66;29395;217;63009;-52
2023/06/13 02:25:41;;;;;;;0.57;0.57;;;;;;;16.01;47.94;96428.03;29395;217;63005;-63
2023/06/13 02:26:13;;;;;;;0.40;0.40;;;;;;;16.03;47.75;96432.03;29395;238;63009;-52
2023/06/13 02:26:45;;;;;;;0.40;0.40;;;;;;;16.04;47.88;96427.37;29395;251;63005;-53
2023/06/13 02:27:16;;;;;;;0.40;0.40;;;;;;;16.04;47.52;96430.09;29395;202;63016;-63
2023/06/13 02:27:48;;;;;;;0.40;0.40;;;;;;;16.02;47.67;96430.44;29395;202;63005;-52
2023/06/13 02:28:19;;;;;;;0.40;0.40;;;;;;;16.01;47.76;96428.03;29393;238;64013;-51
2023/06/13 02:28:50;;;;;;;0.40;0.40;;;;;;;15.99;47.98;96442.06;29395;243;63005;-52
2023/06/13 02:29:25;;;;;;;0.40;0.40;;;;;;;15.98;47.71;96440.47;29395;197;63009;-64
2023/06/13 02:29:56;;;;;;;0.55;0.55;;;;;;;15.96;48.15;96433.72;29395;236;63004;-64
2023/06/13 02:30:28;;;;;;;0.40;0.40;;;;;;;15.93;47.96;96435.25;29395;237;63009;-62
2023/06/13 02:30:59;;;;;;;0.40;0.40;;;;;;;15.93;48.05;96437.16;29395;268;63004;-51
2023/06/13 02:31:35;;;;;;;0.40;0.40;;;;;;;15.93;48.34;96432.50;29395;209;63009;-67
2023/06/13 02:32:07;;;;;;;0.40;0.40;;;;;;;15.96;48.24;96437.28;29395;222;63004;-51
2023/06/13 02:32:41;;;;;;;0.40;0.40;;;;;;;16.02;47.64;96430.44;29395;200;63009;-50
2023/06/13 02:33:15;;;;;;;0.40;0.40;;;;;;;16.04;47.49;96430.09;29393;223;64009;-65
2023/06/13 02:33:46;;;;;;;0.40;0.40;;;;;;;16.02;47.91;96435.91;29396;225;63009;-64
2023/06/13 02:34:18;;;;;;;0.40;0.40;;;;;;;16.01;47.62;96433.53;29393;294;64009;-64
2023/06/13 02:34:51;;;;;;;0.40;0.40;;;;;;;15.99;47.81;96433.84;29395;197;63009;-62
2023/06/13 02:35:23;;;;;;;0.65;0.65;;;;;;;15.97;47.90;96438.88;29395;265;63005;-51
2023/06/13 02:35:54;;;;;;;0.30;0.30;;;;;;;15.92;48.34;96435.56;29395;244;63009;-51
2023/06/13 02:36:25;;;;;;;0.40;0.40;;;;;;;15.86;48.45;96434.97;29395;216;63005;-61
2023/06/13 02:36:57;;;;;;;0.50;0.50;;;;;;;15.83;48.24;96427.44;29395;249;63009;-51
2023/06/13 02:37:28;;;;;;;0.40;0.40;;;;;;;15.86;48.37;96437.72;29395;279;63004;-51
2023/06/13 02:37:59;;;;;;;0.40;0.40;;;;;;;15.91;48.03;96437.50;29395;236;63009;-64
2023/06/13 02:38:31;;;;;;;0.40;0.40;;;;;;;15.94;47.87;96439.53;29393;209;64009;-66
2023/06/13 02:39:02;;;;;;;0.40;0.40;;;;;;;15.94;48.03;96439.53;29395;202;63018;-52
2023/06/13 02:39:34;;;;;;;0.40;0.40;;;;;;;15.93;48.03;96437.97;29395;225;63004;-51
2023/06/13 02:40:08;;;;;;;0.40;0.40;;;;;;;15.91;48.22;96434.78;29395;230;63027;-62
2023/06/13 02:40:40;;;;;;;0.40;0.40;;;;;;;15.88;48.08;96443.66;29395;212;63009;-66
2023/06/13 02:41:11;;;;;;;0.40;0.40;;;;;;;15.91;47.90;96440.25;29395;237;63009;-66
2023/06/13 02:41:43;;;;;;;0.40;0.40;;;;;;;15.93;48.01;96437.97;29393;220;64009;-51
2023/06/13 02:42:14;;;;;;;0.77;0.77;;;;;;;15.91;48.19;96434.78;29395;216;63016;-63
2023/06/13 02:42:49;;;;;;;0.40;0.40;;;;;;;15.87;48.09;96438.53;29395;232;63005;-52
2023/06/13 02:43:22;;;;;;;0.40;0.40;;;;;;;15.86;48.13;96443.19;29395;249;63009;-51
2023/06/13 02:43:54;;;;;;;0.40;0.40;;;;;;;15.86;48.18;96440.44;29395;216;63005;-64
2023/06/13 02:44:25;;;;;;;0.40;0.40;;;;;;;15.83;47.99;96438.38;29395;263;63009;-51
2023/06/13 02:44:56;;;;;;;0.40;0.40;;;;;;;15.83;48.15;96437.59;29393;202;64009;-51
2023/06/13 02:45:28;;;;;;;0.50;0.50;;;;;;;15.83;48.53;96437.59;29395;206;63009;-50